Time;durP1;ratioP1;P1;durP2;ratioP2;P2;SDS_P1;SDS_P2;PMS_P1;PMS_P2;Temp;Humidity;BMP_temperature;BMP_pressure;BME280_temperature;BME280_humidity;BME280_pressure;Samples;Min_cycle;Max_cycle;Signal;HPM_P1;HPM_P2
2023/12/06 00:00:22;;;;;;;6.20;5.60;;;;;;;16.49;51.54;98033.14;105201;1259;73642;-36
2023/12/06 00:02:50;;;;;;;7.30;6.50;;;;;;;16.49;51.48;98032.34;105305;1261;61293;-36
2023/12/06 00:05:17;;;;;;;7.20;6.00;;;;;;;16.49;51.44;98038.93;105576;1258;61362;-36
2023/12/06 00:07:44;;;;;;;6.80;6.10;;;;;;;16.49;51.51;98041.06;105590;1257;74565;-35
2023/12/06 00:10:11;;;;;;;7.00;6.30;;;;;;;16.49;51.56;98042.15;105292;1261;65990;-36
2023/12/06 00:12:39;;;;;;;6.90;6.20;;;;;;;16.48;51.58;98040.98;105467;1260;72588;-36
2023/12/06 00:15:08;;;;;;;7.60;6.40;;;;;;;16.48;51.56;98045.08;105290;1262;61828;-36
2023/12/06 00:17:35;;;;;;;7.10;6.20;;;;;;;16.48;51.51;98048.83;105185;1258;61220;-36
2023/12/06 00:20:03;;;;;;;7.30;6.00;;;;;;;16.48;51.47;98048.60;105263;1257;74713;-36
2023/12/06 00:22:31;;;;;;;9.50;6.40;;;;;;;16.48;51.52;98049.30;105414;1260;64881;-36
2023/12/06 00:24:59;;;;;;;8.40;6.20;;;;;;;16.47;51.50;98046.40;105579;1257;71697;-35
2023/12/06 00:27:43;;;;;;;7.00;6.30;;;;;;;16.47;51.49;98050.03;105332;1261;61260;-36
2023/12/06 00:30:11;;;;;;;7.00;6.30;;;;;;;16.46;51.45;98044.23;105282;1259;61237;-35
2023/12/06 00:32:38;;;;;;;7.00;6.10;;;;;;;16.46;51.52;98043.36;105559;1257;74597;-36
2023/12/06 00:35:08;;;;;;;7.00;6.30;;;;;;;16.47;51.47;98047.23;105333;1260;66251;-36
2023/12/06 00:37:35;;;;;;;6.90;6.00;;;;;;;16.46;51.48;98044.67;105404;1261;72438;-36
2023/12/06 00:40:03;;;;;;;6.70;6.00;;;;;;;16.46;51.55;98045.22;105444;1262;61234;-36
2023/12/06 00:42:31;;;;;;;6.80;6.10;;;;;;;16.45;51.47;98044.80;105573;1257;61157;-36
2023/12/06 00:44:58;;;;;;;6.90;6.30;;;;;;;16.45;51.47;98043.17;105191;1261;74820;-35
2023/12/06 00:47:26;;;;;;;6.50;5.80;;;;;;;16.45;51.44;98043.65;105454;1261;66066;-36
2023/12/06 00:49:54;;;;;;;6.90;6.20;;;;;;;16.44;51.38;98042.98;105543;1260;72314;-35
2023/12/06 00:52:22;;;;;;;7.70;6.10;;;;;;;16.44;51.50;98047.63;105614;1261;61207;-35
2023/12/06 00:54:49;;;;;;;6.90;6.10;;;;;;;16.44;51.48;98045.90;105327;1259;61433;-36
2023/12/06 00:57:17;;;;;;;6.80;6.10;;;;;;;16.44;51.33;98046.45;105189;1259;74585;-37
2023/12/06 00:59:44;;;;;;;7.30;6.30;;;;;;;16.44;51.43;98046.30;105205;1261;63755;-37
2023/12/06 01:02:11;;;;;;;7.10;6.40;;;;;;;16.43;51.43;98050.15;105503;1259;73069;-37
2023/12/06 01:04:39;;;;;;;8.50;6.20;;;;;;;16.43;51.37;98051.45;105592;1260;61355;-37
2023/12/06 01:07:06;;;;;;;7.10;6.00;;;;;;;16.43;51.34;98046.50;105544;1259;61351;-36
2023/12/06 01:09:34;;;;;;;8.10;6.70;;;;;;;16.43;51.33;98047.20;105362;1261;74607;-36
2023/12/06 01:12:01;;;;;;;7.60;6.10;;;;;;;16.43;51.34;98046.50;105541;1261;65727;-36
2023/12/06 01:14:29;;;;;;;7.10;6.30;;;;;;;16.42;51.44;98050.24;105439;1259;73110;-36
2023/12/06 01:16:56;;;;;;;7.20;6.10;;;;;;;16.42;51.46;98048.63;105317;1259;61255;-36
2023/12/06 01:19:23;;;;;;;6.70;5.90;;;;;;;16.42;51.39;98044.68;105360;1260;61242;-37
2023/12/06 01:21:51;;;;;;;8.00;5.90;;;;;;;16.42;51.45;98046.69;105245;1259;74627;-36
2023/12/06 01:24:19;;;;;;;6.70;5.70;;;;;;;16.41;51.49;98042.89;105197;1261;66160;-36
2023/12/06 01:26:46;;;;;;;6.60;6.00;;;;;;;16.42;51.41;98043.27;105536;1260;72630;-36
2023/12/06 01:29:14;;;;;;;9.10;6.60;;;;;;;16.41;51.43;98037.77;105544;1262;61234;-36
2023/12/06 01:31:41;;;;;;;6.90;6.20;;;;;;;16.41;51.45;98037.70;105455;1259;61316;-36
2023/12/06 01:34:09;;;;;;;7.60;6.10;;;;;;;16.41;51.42;98036.77;105592;1261;74606;-36
2023/12/06 01:36:36;;;;;;;7.60;6.40;;;;;;;16.41;51.37;98039.77;105486;1259;66090;-36
2023/12/06 01:39:04;;;;;;;6.30;5.70;;;;;;;16.40;51.37;98038.59;105633;1259;72445;-36
2023/12/06 01:41:31;;;;;;;8.10;6.20;;;;;;;16.40;51.32;98038.48;105380;1260;61264;-36
2023/12/06 01:43:58;;;;;;;7.00;5.80;;;;;;;16.40;51.44;98039.80;105539;1259;61422;-36
2023/12/06 01:46:26;;;;;;;6.30;5.70;;;;;;;16.40;51.42;98037.09;105508;1261;74409;-36
2023/12/06 01:48:54;;;;;;;8.30;6.80;;;;;;;16.39;51.42;98034.77;105444;1261;64762;-37
2023/12/06 01:51:22;;;;;;;6.80;5.80;;;;;;;16.39;51.34;98031.05;105554;1259;72661;-36
2023/12/06 01:53:49;;;;;;;6.30;5.50;;;;;;;16.39;51.31;98032.90;105264;1261;61278;-37
2023/12/06 01:56:16;;;;;;;6.40;5.80;;;;;;;16.39;51.36;98031.83;105563;1261;61330;-37
2023/12/06 01:58:44;;;;;;;6.60;5.70;;;;;;;16.39;51.35;98031.58;105545;1261;74673;-37
2023/12/06 02:01:11;;;;;;;6.60;6.00;;;;;;;16.39;51.40;98028.65;105331;1264;64071;-36
2023/12/06 02:03:38;;;;;;;6.50;5.90;;;;;;;16.39;51.35;98027.89;105408;1259;72530;-37
2023/12/06 02:06:07;;;;;;;7.30;6.00;;;;;;;16.38;51.37;98033.95;105210;1261;61232;-37
2023/12/06 02:08:35;;;;;;;7.00;6.30;;;;;;;16.38;51.27;98036.02;105522;1259;61240;-36
2023/12/06 02:11:04;;;;;;;6.70;6.00;;;;;;;16.37;51.35;98034.46;105622;1261;74610;-36
2023/12/06 02:13:31;;;;;;;6.60;5.80;;;;;;;16.38;51.37;98032.62;105421;1261;66096;-36
2023/12/06 02:15:58;;;;;;;6.60;6.00;;;;;;;16.37;51.42;98032.74;105344;1261;72591;-36
2023/12/06 02:18:26;;;;;;;6.70;5.90;;;;;;;16.37;51.27;98030.59;105579;1262;61394;-36
2023/12/06 02:20:53;;;;;;;7.30;5.70;;;;;;;16.37;51.29;98028.33;105303;1261;61287;-36
2023/12/06 02:23:22;;;;;;;6.40;5.80;;;;;;;16.37;51.33;98025.85;105411;1258;74616;-36
2023/12/06 02:25:50;;;;;;;6.30;5.70;;;;;;;16.36;51.24;98023.91;105543;1262;64798;-36
2023/12/06 02:28:17;;;;;;;6.50;5.60;;;;;;;16.36;51.19;98024.52;105186;1259;73026;-37
2023/12/06 02:30:44;;;;;;;6.10;5.60;;;;;;;16.36;51.21;98024.14;105449;1261;61251;-37
2023/12/06 02:33:12;;;;;;;6.90;5.80;;;;;;;16.36;51.32;98022.20;105231;1257;61332;-36
2023/12/06 02:35:41;;;;;;;6.70;6.00;;;;;;;16.36;51.31;98022.67;105197;1259;74623;-36
2023/12/06 02:38:08;;;;;;;6.70;6.00;;;;;;;16.36;51.31;98023.52;105100;1259;66340;-36
2023/12/06 02:40:35;;;;;;;6.50;5.80;;;;;;;16.36;51.39;98025.52;105571;1259;72679;-36
2023/12/06 02:43:03;;;;;;;6.00;5.40;;;;;;;16.35;51.32;98024.66;105653;1261;61247;-37
2023/12/06 02:45:30;;;;;;;6.60;5.80;;;;;;;16.36;51.24;98024.05;105949;1258;61283;-35
2023/12/06 02:47:58;;;;;;;6.40;5.70;;;;;;;16.35;51.30;98020.23;105267;1260;74429;-37
2023/12/06 02:50:25;;;;;;;6.50;5.80;;;;;;;16.35;51.36;98023.32;105315;1261;65436;-36
2023/12/06 02:52:52;;;;;;;6.70;5.60;;;;;;;16.35;51.39;98022.94;105360;1262;72617;-36
2023/12/06 02:55:20;;;;;;;6.50;5.80;;;;;;;16.35;51.39;98024.55;105238;1262;61160;-36
2023/12/06 02:57:47;;;;;;;6.60;5.80;;;;;;;16.35;51.32;98023.26;105444;1258;61319;-36
2023/12/06 03:00:15;;;;;;;6.40;5.80;;;;;;;16.35;51.22;98025.87;105288;1261;74603;-36
2023/12/06 03:02:42;;;;;;;7.50;5.80;;;;;;;16.35;51.32;98025.40;105398;1262;64315;-36
2023/12/06 03:05:10;;;;;;;6.30;5.70;;;;;;;16.35;51.32;98024.31;105282;1258;72697;-36
2023/12/06 03:07:37;;;;;;;6.90;5.80;;;;;;;16.35;51.31;98029.71;105380;1259;61249;-36
2023/12/06 03:10:05;;;;;;;6.20;5.50;;;;;;;16.35;51.26;98029.34;105150;1259;61269;-36
2023/12/06 03:12:33;;;;;;;6.60;5.90;;;;;;;16.35;51.30;98024.09;105208;1259;73295;-36
2023/12/06 03:15:00;;;;;;;6.60;5.50;;;;;;;16.34;51.25;98025.84;105400;1261;65758;-36
2023/12/06 03:17:27;;;;;;;6.70;5.90;;;;;;;16.34;51.22;98020.44;105266;1261;71338;-36
2023/12/06 03:19:55;;;;;;;6.20;5.60;;;;;;;16.34;51.26;98022.52;105339;1261;61252;-36
2023/12/06 03:22:22;;;;;;;7.00;5.90;;;;;;;16.34;51.28;98027.91;105275;1259;61266;-36
2023/12/06 03:24:49;;;;;;;7.30;6.10;;;;;;;16.34;51.26;98028.99;105265;1259;75157;-35
2023/12/06 03:27:17;;;;;;;6.30;5.70;;;;;;;16.34;51.33;98030.52;105306;1261;65734;-36
2023/12/06 03:29:44;;;;;;;6.70;5.70;;;;;;;16.33;51.25;98032.30;105406;1259;72707;-36
2023/12/06 03:32:11;;;;;;;7.10;5.60;;;;;;;16.33;51.21;98035.45;105389;1261;61233;-36
2023/12/06 03:34:39;;;;;;;6.20;5.60;;;;;;;16.33;51.29;98031.98;105301;1257;61214;-35
2023/12/06 03:37:06;;;;;;;5.80;5.10;;;;;;;16.33;51.20;98037.55;105661;1260;74754;-36
2023/12/06 03:39:33;;;;;;;7.70;6.00;;;;;;;16.33;51.33;98035.23;105619;1259;66251;-35
2023/12/06 03:42:01;;;;;;;7.00;6.10;;;;;;;16.33;51.25;98031.89;105521;1259;72632;-36
2023/12/06 03:44:28;;;;;;;6.60;5.60;;;;;;;16.33;51.16;98031.02;105481;1262;61353;-36
2023/12/06 03:46:56;;;;;;;6.00;5.40;;;;;;;16.32;51.25;98035.25;105636;1258;61392;-36
2023/12/06 03:49:23;;;;;;;5.90;5.30;;;;;;;16.32;51.32;98035.58;105603;1258;74330;-35
2023/12/06 03:51:51;;;;;;;6.40;5.80;;;;;;;16.32;51.17;98034.49;105392;1257;66324;-36
2023/12/06 03:54:18;;;;;;;6.40;5.70;;;;;;;16.33;51.28;98036.42;105509;1258;72381;-35
2023/12/06 03:56:45;;;;;;;6.00;5.30;;;;;;;16.32;51.17;98038.88;105152;1260;61247;-35
2023/12/06 03:59:13;;;;;;;6.70;5.90;;;;;;;16.32;51.28;98035.70;105214;1258;61357;-36
2023/12/06 04:01:44;;;;;;;7.50;6.40;;;;;;;16.32;51.35;98040.96;105239;1261;75608;-36
2023/12/06 04:04:12;;;;;;;6.10;5.50;;;;;;;16.32;51.29;98041.96;105351;1261;65248;-36
2023/12/06 04:06:40;;;;;;;7.00;5.70;;;;;;;16.32;51.22;98044.52;105513;1260;72997;-36
2023/12/06 04:09:07;;;;;;;6.20;5.60;;;;;;;16.32;51.17;98044.83;105317;1261;61183;-36
2023/12/06 04:11:34;;;;;;;6.80;6.10;;;;;;;16.32;51.18;98050.85;105620;1259;61357;-36
2023/12/06 04:14:03;;;;;;;8.50;6.10;;;;;;;16.32;51.26;98051.70;105585;1261;73608;-35
2023/12/06 04:16:30;;;;;;;6.90;5.50;;;;;;;16.32;51.22;98053.33;105575;1262;65327;-36
2023/12/06 04:18:57;;;;;;;6.30;5.70;;;;;;;16.32;51.14;98053.54;105218;1259;72615;-35
2023/12/06 04:21:25;;;;;;;5.80;5.20;;;;;;;16.31;51.21;98053.30;105425;1262;61185;-36
2023/12/06 04:23:53;;;;;;;6.90;5.50;;;;;;;16.32;51.30;98060.27;105498;1259;61329;-35
2023/12/06 04:26:21;;;;;;;5.80;5.20;;;;;;;16.31;51.16;98065.34;105552;1261;73120;-35
2023/12/06 04:28:48;;;;;;;8.00;5.50;;;;;;;16.31;51.22;98059.24;105490;1262;66216;-36
2023/12/06 04:31:15;;;;;;;5.70;5.20;;;;;;;16.32;51.14;98056.31;105393;1259;72654;-36
2023/12/06 04:33:43;;;;;;;5.60;5.00;;;;;;;16.31;51.09;98055.62;105270;1261;61248;-36
2023/12/06 04:36:12;;;;;;;7.70;5.50;;;;;;;16.31;51.23;98055.84;105472;1259;61351;-36
2023/12/06 04:38:40;;;;;;;5.90;5.30;;;;;;;16.31;51.25;98058.70;105610;1259;74723;-35
2023/12/06 04:41:07;;;;;;;6.20;5.20;;;;;;;16.31;51.09;98056.83;105500;1261;66349;-35
2023/12/06 04:43:35;;;;;;;6.30;5.70;;;;;;;16.31;51.09;98058.61;105479;1259;71575;-35
2023/12/06 04:46:02;;;;;;;6.70;5.80;;;;;;;16.31;51.20;98060.83;105394;1263;61168;-35
2023/12/06 04:48:30;;;;;;;6.10;5.10;;;;;;;16.31;51.17;98062.77;105401;1262;61248;-36
2023/12/06 04:50:57;;;;;;;5.90;5.30;;;;;;;16.30;51.15;98065.91;105441;1261;74387;-35
2023/12/06 04:53:28;;;;;;;6.70;5.50;;;;;;;16.30;51.19;98068.14;105520;1261;66012;-35
2023/12/06 04:55:56;;;;;;;6.00;5.40;;;;;;;16.30;51.14;98066.36;105651;1259;72675;-36
2023/12/06 04:58:23;;;;;;;6.90;5.70;;;;;;;16.30;51.15;98073.16;105580;1261;61272;-36
2023/12/06 05:00:52;;;;;;;6.00;5.20;;;;;;;16.30;51.18;98069.61;105566;1259;61343;-35
2023/12/06 05:03:20;;;;;;;6.20;5.20;;;;;;;16.30;51.11;98073.92;105329;1261;74742;-35
2023/12/06 05:05:47;;;;;;;6.00;5.40;;;;;;;16.30;51.15;98076.09;105554;1261;65728;-36
2023/12/06 05:08:15;;;;;;;6.40;5.80;;;;;;;16.30;51.10;98082.10;105186;1258;72299;-36
2023/12/06 05:10:42;;;;;;;5.70;5.10;;;;;;;16.30;51.14;98085.38;105621;1257;61271;-36
2023/12/06 05:13:09;;;;;;;6.20;5.40;;;;;;;16.30;51.17;98085.83;105372;1259;61348;-36
2023/12/06 05:15:37;;;;;;;5.80;5.10;;;;;;;16.30;51.20;98085.98;105533;1259;73388;-36
2023/12/06 05:18:04;;;;;;;6.30;5.20;;;;;;;16.30;51.18;98086.45;105630;1261;65306;-36
2023/12/06 05:20:32;;;;;;;6.30;5.20;;;;;;;16.30;51.15;98085.61;105990;1261;72633;-36
2023/12/06 05:22:59;;;;;;;5.80;5.20;;;;;;;16.31;51.12;98085.86;105388;1261;61929;-36
2023/12/06 05:25:26;;;;;;;6.30;5.50;;;;;;;16.31;51.07;98088.94;105489;1260;61259;-36
2023/12/06 05:27:54;;;;;;;6.10;5.50;;;;;;;16.30;51.11;98090.30;105588;1261;74423;-36
2023/12/06 05:30:21;;;;;;;5.70;5.10;;;;;;;16.30;51.17;98085.34;105553;1262;65891;-36
2023/12/06 05:32:48;;;;;;;6.40;5.30;;;;;;;16.30;51.14;98086.05;105486;1260;72659;-35
2023/12/06 05:35:16;;;;;;;5.50;4.90;;;;;;;16.30;51.18;98085.51;105119;1261;61240;-35
2023/12/06 05:37:43;;;;;;;7.80;5.50;;;;;;;16.30;51.13;98088.30;105550;1261;61280;-35
2023/12/06 05:40:10;;;;;;;5.60;5.00;;;;;;;16.30;51.12;98087.98;105467;1261;74363;-34
2023/12/06 05:42:38;;;;;;;9.50;6.80;;;;;;;16.30;51.14;98085.82;105418;1261;64073;-36
2023/12/06 05:45:06;;;;;;;9.90;7.00;;;;;;;16.29;50.96;98087.20;105503;1262;72728;-35
2023/12/06 05:47:34;;;;;;;8.00;6.70;;;;;;;16.29;50.80;98085.39;105641;1259;61242;-36
2023/12/06 05:50:03;;;;;;;8.00;7.00;;;;;;;16.29;50.69;98089.39;105563;1261;61242;-35
2023/12/06 05:52:30;;;;;;;7.70;6.90;;;;;;;16.27;50.55;98087.11;105586;1261;74572;-35
2023/12/06 05:54:59;;;;;;;8.10;7.00;;;;;;;16.26;50.40;98091.69;105363;1261;65969;-35
2023/12/06 05:57:28;;;;;;;11.60;7.30;;;;;;;16.25;50.43;98086.92;105352;1260;72654;-35
2023/12/06 05:59:59;;;;;;;9.90;7.10;;;;;;;16.23;50.32;98087.78;105287;1257;61347;-36
2023/12/06 06:02:37;;;;;;;10.00;7.40;;;;;;;16.23;50.21;98089.22;105057;1259;61238;-35
2023/12/06 06:05:05;;;;;;;8.60;7.10;;;;;;;16.23;50.41;98093.01;105075;1261;74570;-39
2023/12/06 06:07:32;;;;;;;7.80;7.00;;;;;;;16.23;50.68;98095.97;105293;1261;65985;-34
2023/12/06 06:10:00;;;;;;;10.20;7.40;;;;;;;16.26;50.90;98095.06;105061;1261;72673;-33
2023/12/06 06:12:31;;;;;;;7.70;6.90;;;;;;;16.30;51.14;98101.25;105253;1261;62011;-35
2023/12/06 06:14:58;;;;;;;8.70;6.80;;;;;;;16.33;51.29;98097.08;105166;1257;61195;-34
2023/12/06 06:17:26;;;;;;;8.50;7.20;;;;;;;16.37;51.38;98103.32;105335;1262;74536;-34
2023/12/06 06:19:54;;;;;;;9.60;7.00;;;;;;;16.40;51.56;98103.30;105197;1261;66099;-35
2023/12/06 06:22:21;;;;;;;8.80;6.90;;;;;;;16.42;51.57;98105.95;105052;1262;73007;-36
2023/12/06 06:24:49;;;;;;;7.80;6.80;;;;;;;16.45;51.69;98103.73;105452;1261;61349;-35
2023/12/06 06:27:16;;;;;;;7.20;6.40;;;;;;;16.48;51.74;98101.97;105415;1259;61367;-35
2023/12/06 06:29:44;;;;;;;8.00;7.10;;;;;;;16.50;51.74;98107.69;105429;1263;75337;-36
2023/12/06 06:32:11;;;;;;;8.30;6.40;;;;;;;16.51;51.71;98104.13;105303;1261;66414;-35
2023/12/06 06:34:39;;;;;;;8.20;6.50;;;;;;;16.52;51.56;98106.21;104940;1263;72571;-35
2023/12/06 06:37:09;;;;;;;8.70;6.80;;;;;;;16.53;51.61;98109.25;105023;1263;61231;-36
2023/12/06 06:39:38;;;;;;;8.80;6.50;;;;;;;16.54;51.52;98108.52;107612;1260;61122;-36
2023/12/06 06:42:06;;;;;;;8.80;6.40;;;;;;;16.55;51.45;98110.44;106500;1257;73412;-36
2023/12/06 06:44:33;;;;;;;9.30;6.90;;;;;;;16.56;51.50;98109.91;105049;1260;65442;-36
2023/12/06 06:47:01;;;;;;;8.90;6.90;;;;;;;16.56;51.52;98110.77;105273;1262;72450;-35
2023/12/06 06:49:29;;;;;;;10.00;6.50;;;;;;;16.58;51.73;98112.28;105084;1270;61211;-36
2023/12/06 06:51:57;;;;;;;9.70;6.50;;;;;;;16.59;51.75;98113.86;105097;1262;61357;-38
2023/12/06 06:54:24;;;;;;;7.30;6.40;;;;;;;16.59;51.87;98115.14;104987;1259;75668;-43
2023/12/06 06:56:53;;;;;;;8.40;7.00;;;;;;;16.60;51.95;98115.14;107101;1257;67259;-35
2023/12/06 06:59:20;;;;;;;8.70;6.90;;;;;;;16.60;51.96;98115.02;105165;1259;213721;-36
2023/12/06 07:01:47;;;;;;;8.50;7.20;;;;;;;16.60;52.08;98116.09;104995;1263;61258;-34
2023/12/06 07:04:15;;;;;;;22.00;7.50;;;;;;;16.61;52.12;98116.82;105076;1267;61257;-36
2023/12/06 07:06:42;;;;;;;15.90;7.00;;;;;;;16.62;52.19;98119.16;105374;1257;74546;-34
2023/12/06 07:09:10;;;;;;;18.30;7.60;;;;;;;16.63;52.30;98116.05;105510;1261;66156;-36
2023/12/06 07:11:38;;;;;;;13.60;7.50;;;;;;;16.64;52.40;98117.25;105139;1260;72313;-36
2023/12/06 07:14:05;;;;;;;14.40;6.90;;;;;;;16.64;52.60;98117.18;105048;1260;61263;-35
2023/12/06 07:16:32;;;;;;;15.80;7.50;;;;;;;16.65;52.74;98121.55;105086;1260;61241;-33
2023/12/06 07:18:59;;;;;;;15.40;7.10;;;;;;;16.66;52.85;98123.67;105070;1261;74384;-35
2023/12/06 07:21:27;;;;;;;14.70;7.00;;;;;;;16.67;52.92;98123.48;105029;1271;65630;-35
2023/12/06 07:23:54;;;;;;;9.40;6.60;;;;;;;16.68;52.96;98121.96;104906;1260;72497;-35
2023/12/06 07:26:22;;;;;;;13.10;7.50;;;;;;;16.69;53.06;98124.95;105072;1262;61241;-37
2023/12/06 07:28:50;;;;;;;10.90;7.20;;;;;;;16.71;53.27;98125.65;105052;1261;61363;-36
2023/12/06 07:31:18;;;;;;;10.70;6.20;;;;;;;16.73;53.35;98130.29;105115;1262;74651;-34
2023/12/06 07:33:50;;;;;;;14.90;7.30;;;;;;;16.74;53.41;98130.24;105365;1259;66459;-35
2023/12/06 07:36:23;;;;;;;8.30;6.70;;;;;;;16.75;53.37;98131.13;105015;1264;71380;-36
2023/12/06 07:38:54;;;;;;;9.60;7.10;;;;;;;16.75;53.34;98130.13;104976;1261;61175;-34
2023/12/06 07:41:22;;;;;;;13.00;6.80;;;;;;;16.74;53.37;98127.09;104906;1263;61384;-36
2023/12/06 07:43:51;;;;;;;8.60;6.40;;;;;;;16.74;53.34;98128.27;105528;1259;74583;-37
2023/12/06 07:46:21;;;;;;;9.30;6.40;;;;;;;16.74;53.36;98122.07;105485;1261;66376;-36
2023/12/06 07:48:50;;;;;;;9.90;6.30;;;;;;;16.74;53.39;98119.84;105093;1263;72662;-36
2023/12/06 07:51:20;;;;;;;11.90;6.80;;;;;;;16.75;53.37;98115.44;105717;1260;61326;-36
2023/12/06 07:53:48;;;;;;;10.30;6.60;;;;;;;16.75;53.38;98118.01;105046;1262;61294;-37
2023/12/06 07:56:16;;;;;;;10.40;6.20;;;;;;;16.75;53.48;98114.98;104938;1263;75247;-37
2023/12/06 07:58:56;;;;;;;10.80;6.60;;;;;;;16.75;53.49;98114.38;105364;1262;67182;-37
2023/12/06 08:01:29;;;;;;;8.00;5.90;;;;;;;16.76;53.50;98115.83;105534;1262;72581;-37
2023/12/06 08:03:57;;;;;;;9.50;6.00;;;;;;;16.77;53.50;98114.83;105034;1271;61147;-38
2023/12/06 08:06:26;;;;;;;8.50;6.20;;;;;;;16.78;53.57;98116.95;105114;1259;61309;-37
2023/12/06 08:08:54;;;;;;;13.30;6.20;;;;;;;16.79;53.56;98119.45;105270;1261;73062;-37
2023/12/06 08:11:21;;;;;;;6.50;5.90;;;;;;;16.79;53.53;98116.08;105184;1262;66193;-36
2023/12/06 08:13:48;;;;;;;10.60;5.90;;;;;;;16.80;53.56;98122.27;105120;1261;72664;-37
2023/12/06 08:16:16;;;;;;;7.40;5.40;;;;;;;16.81;53.61;98122.09;105142;1271;61220;-38
2023/12/06 08:18:44;;;;;;;8.50;6.10;;;;;;;16.81;53.74;98122.02;105147;1257;61375;-35
2023/12/06 08:21:11;;;;;;;8.00;6.20;;;;;;;16.82;53.79;98125.33;105051;1257;74610;-37
2023/12/06 08:23:39;;;;;;;7.70;6.00;;;;;;;16.83;53.80;98128.98;105058;1271;66733;-37
2023/12/06 08:26:06;;;;;;;9.20;6.10;;;;;;;16.84;53.82;98131.35;104877;1262;73286;-37
2023/12/06 08:28:35;;;;;;;6.80;6.00;;;;;;;16.84;53.75;98134.08;104973;1261;61338;-38
2023/12/06 08:31:05;;;;;;;8.40;6.30;;;;;;;16.84;53.87;98139.70;104999;1263;61366;-42
2023/12/06 08:33:35;;;;;;;6.70;5.90;;;;;;;16.86;53.79;98138.67;105391;1263;75318;-38
2023/12/06 08:36:04;;;;;;;6.10;5.50;;;;;;;16.86;53.98;98139.23;105162;1263;67862;-41
2023/12/06 08:38:32;;;;;;;7.00;5.70;;;;;;;16.87;54.01;98139.11;105042;1262;73384;-39
2023/12/06 08:40:59;;;;;;;9.90;5.70;;;;;;;16.88;54.08;98136.05;106351;1258;61344;-38
2023/12/06 08:43:27;;;;;;;10.00;6.00;;;;;;;16.89;54.15;98137.63;104987;1257;61244;-37
2023/12/06 08:45:59;;;;;;;6.00;5.30;;;;;;;16.89;54.24;98134.80;105111;1257;74540;-36
2023/12/06 08:48:26;;;;;;;6.00;5.20;;;;;;;16.91;54.32;98138.81;105390;1261;66123;-39
2023/12/06 08:50:54;;;;;;;6.20;5.60;;;;;;;16.92;54.38;98140.23;106702;1263;72604;-36
2023/12/06 08:53:21;;;;;;;6.50;5.60;;;;;;;16.92;54.37;98142.71;105057;1263;61181;-37
2023/12/06 08:55:49;;;;;;;6.70;5.70;;;;;;;16.93;54.31;98141.52;105369;1261;60376;-37
2023/12/06 08:58:17;;;;;;;7.90;5.90;;;;;;;16.94;54.33;98144.19;105387;1258;74432;-39
2023/12/06 09:00:45;;;;;;;6.10;5.50;;;;;;;16.95;54.40;98138.65;104935;1271;66119;-38
2023/12/06 09:03:12;;;;;;;8.30;5.70;;;;;;;16.95;54.31;98137.95;104972;1257;71279;-37
2023/12/06 09:05:40;;;;;;;7.20;5.50;;;;;;;16.96;54.49;98143.32;105440;1261;61333;-37
2023/12/06 09:08:08;;;;;;;8.40;5.50;;;;;;;16.96;54.49;98141.34;104986;1257;61244;-36
2023/12/06 09:10:40;;;;;;;6.70;5.70;;;;;;;16.97;54.53;98140.45;105620;1260;75169;-38
2023/12/06 09:13:09;;;;;;;7.40;6.00;;;;;;;16.98;54.59;98137.23;104853;1263;64763;-36
2023/12/06 09:15:36;;;;;;;6.00;5.20;;;;;;;16.98;54.68;98129.75;104929;1257;74115;-37
2023/12/06 09:18:04;;;;;;;7.50;5.70;;;;;;;16.99;54.70;98134.65;105274;1260;61246;-36
2023/12/06 09:20:31;;;;;;;7.30;5.60;;;;;;;17.00;54.78;98133.45;105531;1258;61276;-39
2023/12/06 09:22:59;;;;;;;9.10;6.00;;;;;;;17.01;54.87;98128.77;104871;1257;75646;-37
2023/12/06 09:25:26;;;;;;;8.10;5.20;;;;;;;17.03;54.81;98129.20;105010;1258;67251;-38
2023/12/06 09:27:56;;;;;;;7.30;5.60;;;;;;;17.03;54.84;98126.21;104920;1258;73994;-37
2023/12/06 09:30:24;;;;;;;7.60;5.40;;;;;;;17.04;54.84;98135.00;104907;1260;61166;-38
2023/12/06 09:32:52;;;;;;;8.60;5.90;;;;;;;17.05;54.86;98138.27;104957;1257;61363;-37
2023/12/06 09:35:25;;;;;;;7.80;5.60;;;;;;;17.06;54.99;98144.34;105101;1263;74507;-37
2023/12/06 09:37:52;;;;;;;7.60;5.90;;;;;;;17.07;55.07;98144.36;104755;1258;66538;-37
2023/12/06 09:41:00;;;;;;;9.30;5.60;;;;;;;17.08;55.13;98142.16;105327;1258;72302;-38
2023/12/06 09:43:43;;;;;;;8.50;6.30;;;;;;;17.11;55.48;98144.08;105375;1263;61198;-37
2023/12/06 09:46:18;;;;;;;8.00;6.50;;;;;;;17.17;56.20;98144.93;105154;1257;62789;-37
2023/12/06 09:48:47;;;;;;;8.50;6.30;;;;;;;17.24;56.61;98141.23;104968;1262;74605;-37
2023/12/06 09:51:15;;;;;;;7.60;5.80;;;;;;;17.29;56.94;98140.13;107114;1257;66171;-36
2023/12/06 09:53:43;;;;;;;7.60;6.00;;;;;;;17.36;57.16;98138.14;105241;1257;71858;-36
2023/12/06 09:56:11;;;;;;;8.70;5.90;;;;;;;17.41;57.25;98133.52;105076;1258;61244;-36
2023/12/06 09:58:38;;;;;;;7.00;6.00;;;;;;;17.47;57.05;98134.52;104717;1264;61271;-36
2023/12/06 10:01:06;;;;;;;7.00;5.60;;;;;;;17.51;57.00;98134.85;104992;1262;75187;-37
2023/12/06 10:03:33;;;;;;;8.60;7.70;;;;;;;17.55;56.83;98131.71;105065;1258;66301;-36
2023/12/06 10:06:04;;;;;;;8.60;5.70;;;;;;;17.59;56.85;98131.13;105092;1257;73516;-35
2023/12/06 10:08:33;;;;;;;8.50;5.90;;;;;;;17.62;56.94;98130.94;104843;1262;60096;-35
2023/12/06 10:11:05;;;;;;;7.20;6.30;;;;;;;17.65;56.83;98133.98;105399;1257;61365;-35
2023/12/06 10:13:37;;;;;;;10.60;7.00;;;;;;;17.67;56.73;98134.19;105464;1258;73521;-37
2023/12/06 10:16:15;;;;;;;10.20;7.20;;;;;;;17.68;56.48;98133.16;106543;1258;66026;-37
2023/12/06 10:18:45;;;;;;;8.40;6.60;;;;;;;17.68;56.51;98134.02;104999;1258;72626;-37
2023/12/06 10:21:13;;;;;;;8.10;6.50;;;;;;;17.68;56.41;98132.08;105567;1258;61244;-35
2023/12/06 10:23:44;;;;;;;12.70;7.20;;;;;;;17.68;56.22;98132.39;105143;1257;61308;-36
2023/12/06 10:26:15;;;;;;;8.80;7.00;;;;;;;17.68;56.16;98128.06;105201;1258;74546;-36
2023/12/06 10:28:42;;;;;;;8.10;6.90;;;;;;;17.68;56.07;98122.55;106628;1258;66126;-36
2023/12/06 10:31:09;;;;;;;10.40;6.90;;;;;;;17.67;55.97;98124.55;105047;1258;72594;-37
2023/12/06 10:33:38;;;;;;;8.50;6.60;;;;;;;17.67;55.86;98123.07;105271;1261;61248;-36
2023/12/06 10:36:08;;;;;;;9.50;6.90;;;;;;;17.66;55.78;98127.43;105094;1261;61224;-38
2023/12/06 10:38:38;;;;;;;7.80;7.00;;;;;;;17.64;55.55;98121.17;105422;1256;73098;-36
2023/12/06 10:41:05;;;;;;;8.20;7.10;;;;;;;17.63;55.47;98118.06;104995;1264;66302;-37
2023/12/06 10:43:33;;;;;;;7.90;7.10;;;;;;;17.62;55.35;98116.53;104896;1258;72710;-38
2023/12/06 10:46:00;;;;;;;11.00;7.40;;;;;;;17.60;55.32;98116.19;104916;1264;61255;-37
2023/12/06 10:48:28;;;;;;;7.90;7.10;;;;;;;17.60;55.15;98112.04;105287;1256;62468;-35
2023/12/06 10:50:56;;;;;;;8.90;7.00;;;;;;;17.59;55.28;98105.35;104985;1263;75649;-36
2023/12/06 10:53:23;;;;;;;9.60;7.40;;;;;;;17.58;55.16;98100.94;105052;1257;67335;-36
2023/12/06 10:55:51;;;;;;;9.00;7.50;;;;;;;17.58;55.25;98099.98;104949;1260;73514;-36
2023/12/06 10:58:18;;;;;;;8.00;7.20;;;;;;;17.57;55.10;98096.46;105232;1261;61316;-35
2023/12/06 11:00:46;;;;;;;8.40;7.20;;;;;;;17.55;55.11;98092.92;104861;1258;61313;-35
2023/12/06 11:03:14;;;;;;;9.10;7.30;;;;;;;17.54;55.06;98090.11;105256;1261;75785;-36
2023/12/06 11:05:47;;;;;;;10.20;6.90;;;;;;;17.54;55.07;98089.33;105412;1260;66804;-35
2023/12/06 11:08:23;;;;;;;7.70;6.90;;;;;;;17.54;55.09;98086.61;105227;1257;72668;-33
2023/12/06 11:10:59;;;;;;;9.00;7.40;;;;;;;17.53;54.96;98082.02;105039;1258;61415;-34
2023/12/06 11:13:45;;;;;;;7.70;6.90;;;;;;;17.53;54.87;98078.77;105218;1257;61343;-35
2023/12/06 11:16:42;;;;;;;7.90;7.00;;;;;;;17.52;54.85;98080.59;105275;1257;73554;-35
2023/12/06 11:19:10;;;;;;;9.70;6.80;;;;;;;17.52;54.78;98082.83;105636;1260;66220;-34
2023/12/06 11:21:37;;;;;;;7.60;6.80;;;;;;;17.51;54.72;98073.06;105213;1258;72613;-34
2023/12/06 11:24:07;;;;;;;8.50;7.20;;;;;;;17.51;54.70;98071.66;105164;1264;61359;-35
2023/12/06 11:26:34;;;;;;;7.90;7.10;;;;;;;17.50;54.72;98068.52;105474;1257;61148;-34
2023/12/06 11:29:02;;;;;;;9.70;7.30;;;;;;;17.51;54.64;98065.11;105116;1257;74622;-35